sensor_id;sensor_type;location;lat;lon;timestamp;P1;durP1;ratioP1;P2;durP2;ratioP2
65037;SDS011;51605;47.040;15.294;2023-04-01T00:01:09;0.63;;;0.50;;
65037;SDS011;51605;47.040;15.294;2023-04-01T00:03:36;0.80;;;0.60;;
65037;SDS011;51605;47.040;15.294;2023-04-01T00:06:02;0.73;;;0.60;;
65037;SDS011;51605;47.040;15.294;2023-04-01T00:08:28;0.95;;;0.52;;
65037;SDS011;51605;47.040;15.294;2023-04-01T00:10:54;0.60;;;0.60;;
65037;SDS011;51605;47.040;15.294;2023-04-01T00:15:48;0.77;;;0.65;;
65037;SDS011;51605;47.040;15.294;2023-04-01T00:18:13;0.82;;;0.57;;
65037;SDS011;51605;47.040;15.294;2023-04-01T00:20:42;0.65;;;0.60;;
65037;SDS011;51605;47.040;15.294;2023-04-01T00:23:09;0.68;;;0.68;;
65037;SDS011;51605;47.040;15.294;2023-04-01T00:25:35;0.63;;;0.63;;
65037;SDS011;51605;47.040;15.294;2023-04-01T00:28:01;0.63;;;0.63;;
65037;SDS011;51605;47.040;15.294;2023-04-01T00:30:27;0.52;;;0.50;;
65037;SDS011;51605;47.040;15.294;2023-04-01T00:32:52;1.30;;;0.60;;
65037;SDS011;51605;47.040;15.294;2023-04-01T00:35:19;0.70;;;0.53;;
65037;SDS011;51605;47.040;15.294;2023-04-01T00:37:45;0.60;;;0.60;;
65037;SDS011;51605;47.040;15.294;2023-04-01T00:40:21;0.85;;;0.60;;
65037;SDS011;51605;47.040;15.294;2023-04-01T00:42:47;0.55;;;0.55;;
65037;SDS011;51605;47.040;15.294;2023-04-01T00:45:23;0.50;;;0.50;;
65037;SDS011;51605;47.040;15.294;2023-04-01T00:47:50;0.57;;;0.50;;
65037;SDS011;51605;47.040;15.294;2023-04-01T00:50:16;0.93;;;0.75;;
65037;SDS011;51605;47.040;15.294;2023-04-01T00:52:42;0.52;;;0.50;;
65037;SDS011;51605;47.040;15.294;2023-04-01T00:55:07;0.85;;;0.73;;
65037;SDS011;51605;47.040;15.294;2023-04-01T00:57:35;0.60;;;0.60;;
65037;SDS011;51605;47.040;15.294;2023-04-01T01:00:04;0.40;;;0.40;;
65037;SDS011;51605;47.040;15.294;2023-04-01T01:02:34;0.70;;;0.60;;
65037;SDS011;51605;47.040;15.294;2023-04-01T01:05:00;0.60;;;0.60;;
65037;SDS011;51605;47.040;15.294;2023-04-01T01:12:44;0.55;;;0.55;;
65037;SDS011;51605;47.040;15.294;2023-04-01T01:20:30;0.50;;;0.50;;
65037;SDS011;51605;47.040;15.294;2023-04-01T01:28:44;0.60;;;0.50;;
65037;SDS011;51605;47.040;15.294;2023-04-01T01:31:28;0.60;;;0.60;;
65037;SDS011;51605;47.040;15.294;2023-04-01T01:36:56;0.43;;;0.43;;
65037;SDS011;51605;47.040;15.294;2023-04-01T01:39:26;0.88;;;0.60;;
65037;SDS011;51605;47.040;15.294;2023-04-01T01:41:58;1.02;;;0.50;;
65037;SDS011;51605;47.040;15.294;2023-04-01T01:44:29;0.50;;;0.45;;
65037;SDS011;51605;47.040;15.294;2023-04-01T01:46:56;0.50;;;0.50;;
65037;SDS011;51605;47.040;15.294;2023-04-01T01:49:23;0.63;;;0.60;;
65037;SDS011;51605;47.040;15.294;2023-04-01T01:51:49;0.60;;;0.60;;
65037;SDS011;51605;47.040;15.294;2023-04-01T01:54:16;0.60;;;0.43;;
65037;SDS011;51605;47.040;15.294;2023-04-01T01:56:44;0.70;;;0.65;;
65037;SDS011;51605;47.040;15.294;2023-04-01T01:59:12;0.43;;;0.43;;
65037;SDS011;51605;47.040;15.294;2023-04-01T02:01:41;0.50;;;0.50;;
65037;SDS011;51605;47.040;15.294;2023-04-01T02:04:10;0.50;;;0.50;;
65037;SDS011;51605;47.040;15.294;2023-04-01T02:06:41;0.60;;;0.60;;
65037;SDS011;51605;47.040;15.294;2023-04-01T02:09:12;0.40;;;0.40;;
65037;SDS011;51605;47.040;15.294;2023-04-01T02:11:51;0.40;;;0.40;;
65037;SDS011;51605;47.040;15.294;2023-04-01T02:14:22;0.50;;;0.50;;
65037;SDS011;51605;47.040;15.294;2023-04-01T02:16:57;0.55;;;0.50;;
65037;SDS011;51605;47.040;15.294;2023-04-01T02:19:38;0.40;;;0.40;;
65037;SDS011;51605;47.040;15.294;2023-04-01T02:22:12;0.60;;;0.52;;
65037;SDS011;51605;47.040;15.294;2023-04-01T02:24:41;0.50;;;0.50;;
65037;SDS011;51605;47.040;15.294;2023-04-01T02:27:09;0.50;;;0.50;;
65037;SDS011;51605;47.040;15.294;2023-04-01T02:29:35;0.52;;;0.50;;
65037;SDS011;51605;47.040;15.294;2023-04-01T02:32:01;0.68;;;0.57;;
65037;SDS011;51605;47.040;15.294;2023-04-01T02:34:28;0.40;;;0.40;;
65037;SDS011;51605;47.040;15.294;2023-04-01T02:36:54;0.50;;;0.50;;
65037;SDS011;51605;47.040;15.294;2023-04-01T02:41:47;1.02;;;0.50;;
65037;SDS011;51605;47.040;15.294;2023-04-01T02:44:14;0.60;;;0.60;;
65037;SDS011;51605;47.040;15.294;2023-04-01T02:49:06;1.17;;;0.57;;
65037;SDS011;51605;47.040;15.294;2023-04-01T02:51:32;0.70;;;0.47;;
65037;SDS011;51605;47.040;15.294;2023-04-01T02:53:58;2.27;;;0.43;;
65037;SDS011;51605;47.040;15.294;2023-04-01T02:56:24;0.55;;;0.55;;
65037;SDS011;51605;47.040;15.294;2023-04-01T02:58:51;0.73;;;0.50;;
65037;SDS011;51605;47.040;15.294;2023-04-01T03:01:17;0.47;;;0.47;;
65037;SDS011;51605;47.040;15.294;2023-04-01T03:03:43;0.50;;;0.50;;
65037;SDS011;51605;47.040;15.294;2023-04-01T03:06:10;0.52;;;0.50;;
65037;SDS011;51605;47.040;15.294;2023-04-01T03:08:37;0.50;;;0.50;;
65037;SDS011;51605;47.040;15.294;2023-04-01T03:11:03;0.57;;;0.57;;
65037;SDS011;51605;47.040;15.294;2023-04-01T03:13:30;1.05;;;0.60;;
65037;SDS011;51605;47.040;15.294;2023-04-01T03:15:55;0.50;;;0.50;;
65037;SDS011;51605;47.040;15.294;2023-04-01T03:18:21;0.50;;;0.50;;
65037;SDS011;51605;47.040;15.294;2023-04-01T03:20:47;0.55;;;0.50;;
65037;SDS011;51605;47.040;15.294;2023-04-01T03:23:12;0.95;;;0.50;;
65037;SDS011;51605;47.040;15.294;2023-04-01T03:25:38;0.73;;;0.50;;
65037;SDS011;51605;47.040;15.294;2023-04-01T03:28:04;0.55;;;0.50;;
65037;SDS011;51605;47.040;15.294;2023-04-01T03:30:30;0.50;;;0.50;;
65037;SDS011;51605;47.040;15.294;2023-04-01T03:32:56;0.60;;;0.50;;
65037;SDS011;51605;47.040;15.294;2023-04-01T03:35:25;0.50;;;0.50;;
65037;SDS011;51605;47.040;15.294;2023-04-01T03:37:51;0.70;;;0.50;;
65037;SDS011;51605;47.040;15.294;2023-04-01T03:40:17;0.40;;;0.40;;
65037;SDS011;51605;47.040;15.294;2023-04-01T03:42:43;0.75;;;0.60;;
65037;SDS011;51605;47.040;15.294;2023-04-01T03:45:09;0.50;;;0.50;;
65037;SDS011;51605;47.040;15.294;2023-04-01T03:47:36;0.40;;;0.40;;
65037;SDS011;51605;47.040;15.294;2023-04-01T03:50:02;0.50;;;0.50;;
65037;SDS011;51605;47.040;15.294;2023-04-01T03:52:29;0.65;;;0.45;;
65037;SDS011;51605;47.040;15.294;2023-04-01T03:54:55;0.55;;;0.47;;
65037;SDS011;51605;47.040;15.294;2023-04-01T03:57:21;0.40;;;0.40;;
65037;SDS011;51605;47.040;15.294;2023-04-01T03:59:46;0.40;;;0.40;;
65037;SDS011;51605;47.040;15.294;2023-04-01T04:02:12;0.38;;;0.30;;
65037;SDS011;51605;47.040;15.294;2023-04-01T04:04:37;0.40;;;0.40;;
65037;SDS011;51605;47.040;15.294;2023-04-01T04:07:03;0.50;;;0.50;;
65037;SDS011;51605;47.040;15.294;2023-04-01T04:09:32;0.63;;;0.45;;
65037;SDS011;51605;47.040;15.294;2023-04-01T04:11:58;0.70;;;0.50;;
65037;SDS011;51605;47.040;15.294;2023-04-01T04:14:25;0.50;;;0.50;;
65037;SDS011;51605;47.040;15.294;2023-04-01T04:16:51;0.63;;;0.50;;
65037;SDS011;51605;47.040;15.294;2023-04-01T04:19:16;0.50;;;0.50;;
65037;SDS011;51605;47.040;15.294;2023-04-01T04:21:42;0.73;;;0.60;;
65037;SDS011;51605;47.040;15.294;2023-04-01T04:24:08;0.50;;;0.50;;
65037;SDS011;51605;47.040;15.294;2023-04-01T04:26:34;0.57;;;0.57;;
65037;SDS011;51605;47.040;15.294;2023-04-01T04:29:00;0.43;;;0.40;;
65037;SDS011;51605;47.040;15.294;2023-04-01T04:31:26;0.88;;;0.65;;
65037;SDS011;51605;47.040;15.294;2023-04-01T04:33:53;0.50;;;0.50;;
65037;SDS011;51605;47.040;15.294;2023-04-01T04:36:19;0.50;;;0.50;;
65037;SDS011;51605;47.040;15.294;2023-04-01T04:38:45;0.60;;;0.60;;
65037;SDS011;51605;47.040;15.294;2023-04-01T04:41:15;0.50;;;0.43;;
65037;SDS011;51605;47.040;15.294;2023-04-01T04:43:47;0.50;;;0.50;;
65037;SDS011;51605;47.040;15.294;2023-04-01T04:46:18;0.55;;;0.55;;
65037;SDS011;51605;47.040;15.294;2023-04-01T04:48:44;0.40;;;0.40;;
65037;SDS011;51605;47.040;15.294;2023-04-01T04:51:16;0.40;;;0.40;;
65037;SDS011;51605;47.040;15.294;2023-04-01T04:53:43;0.45;;;0.45;;
65037;SDS011;51605;47.040;15.294;2023-04-01T04:56:09;0.68;;;0.50;;
65037;SDS011;51605;47.040;15.294;2023-04-01T04:58:37;0.57;;;0.57;;
65037;SDS011;51605;47.040;15.294;2023-04-01T05:01:07;0.50;;;0.50;;
65037;SDS011;51605;47.040;15.294;2023-04-01T05:03:37;1.33;;;0.60;;
65037;SDS011;51605;47.040;15.294;2023-04-01T05:06:03;0.43;;;0.43;;
65037;SDS011;51605;47.040;15.294;2023-04-01T05:08:30;0.63;;;0.50;;
65037;SDS011;51605;47.040;15.294;2023-04-01T05:10:57;0.40;;;0.40;;
65037;SDS011;51605;47.040;15.294;2023-04-01T05:13:23;0.60;;;0.60;;
65037;SDS011;51605;47.040;15.294;2023-04-01T05:15:49;0.52;;;0.40;;
65037;SDS011;51605;47.040;15.294;2023-04-01T05:18:14;0.45;;;0.45;;
65037;SDS011;51605;47.040;15.294;2023-04-01T05:20:45;0.45;;;0.45;;
65037;SDS011;51605;47.040;15.294;2023-04-01T05:23:12;0.77;;;0.57;;
65037;SDS011;51605;47.040;15.294;2023-04-01T05:25:38;0.45;;;0.40;;
65037;SDS011;51605;47.040;15.294;2023-04-01T05:28:04;0.80;;;0.60;;
65037;SDS011;51605;47.040;15.294;2023-04-01T05:30:29;0.57;;;0.50;;
65037;SDS011;51605;47.040;15.294;2023-04-01T05:32:55;2.67;;;0.60;;
65037;SDS011;51605;47.040;15.294;2023-04-01T05:35:20;0.73;;;0.60;;
65037;SDS011;51605;47.040;15.294;2023-04-01T05:37:46;0.47;;;0.40;;
65037;SDS011;51605;47.040;15.294;2023-04-01T05:40:12;1.35;;;0.57;;
65037;SDS011;51605;47.040;15.294;2023-04-01T05:42:37;0.77;;;0.50;;
65037;SDS011;51605;47.040;15.294;2023-04-01T05:45:03;1.75;;;0.60;;
65037;SDS011;51605;47.040;15.294;2023-04-01T05:47:29;1.55;;;0.60;;
65037;SDS011;51605;47.040;15.294;2023-04-01T05:49:55;0.52;;;0.50;;
65037;SDS011;51605;47.040;15.294;2023-04-01T05:52:20;0.90;;;0.60;;
65037;SDS011;51605;47.040;15.294;2023-04-01T05:54:46;0.60;;;0.60;;
65037;SDS011;51605;47.040;15.294;2023-04-01T05:57:11;0.88;;;0.80;;
65037;SDS011;51605;47.040;15.294;2023-04-01T05:59:37;0.98;;;0.55;;
65037;SDS011;51605;47.040;15.294;2023-04-01T06:02:03;0.98;;;0.70;;
65037;SDS011;51605;47.040;15.294;2023-04-01T06:04:32;0.50;;;0.50;;
65037;SDS011;51605;47.040;15.294;2023-04-01T06:07:05;0.68;;;0.60;;
65037;SDS011;51605;47.040;15.294;2023-04-01T06:09:38;0.77;;;0.60;;
65037;SDS011;51605;47.040;15.294;2023-04-01T06:25:40;0.68;;;0.60;;
65037;SDS011;51605;47.040;15.294;2023-04-01T06:51:00;0.70;;;0.70;;
65037;SDS011;51605;47.040;15.294;2023-04-01T06:56:42;0.85;;;0.75;;
65037;SDS011;51605;47.040;15.294;2023-04-01T06:59:19;0.70;;;0.70;;
65037;SDS011;51605;47.040;15.294;2023-04-01T07:01:53;1.02;;;0.70;;
65037;SDS011;51605;47.040;15.294;2023-04-01T07:04:28;0.93;;;0.73;;
65037;SDS011;51605;47.040;15.294;2023-04-01T07:07:04;1.67;;;0.70;;
65037;SDS011;51605;47.040;15.294;2023-04-01T07:09:40;0.60;;;0.60;;
65037;SDS011;51605;47.040;15.294;2023-04-01T07:15:17;1.25;;;0.70;;
65037;SDS011;51605;47.040;15.294;2023-04-01T07:17:47;0.60;;;0.60;;
65037;SDS011;51605;47.040;15.294;2023-04-01T07:20:20;1.40;;;0.60;;
65037;SDS011;51605;47.040;15.294;2023-04-01T07:22:52;0.65;;;0.65;;
65037;SDS011;51605;47.040;15.294;2023-04-01T07:25:26;1.13;;;0.60;;
65037;SDS011;51605;47.040;15.294;2023-04-01T07:28:05;0.90;;;0.70;;
65037;SDS011;51605;47.040;15.294;2023-04-01T07:30:44;0.60;;;0.60;;
65037;SDS011;51605;47.040;15.294;2023-04-01T07:33:29;1.40;;;0.80;;
65037;SDS011;51605;47.040;15.294;2023-04-01T07:36:14;1.55;;;0.70;;
65037;SDS011;51605;47.040;15.294;2023-04-01T07:38:47;1.38;;;0.70;;
65037;SDS011;51605;47.040;15.294;2023-04-01T07:49:35;0.90;;;0.70;;
65037;SDS011;51605;47.040;15.294;2023-04-01T07:52:12;1.95;;;0.80;;
65037;SDS011;51605;47.040;15.294;2023-04-01T07:54:46;1.40;;;0.82;;
65037;SDS011;51605;47.040;15.294;2023-04-01T07:57:19;1.25;;;1.02;;
65037;SDS011;51605;47.040;15.294;2023-04-01T08:05:29;1.33;;;0.98;;
65037;SDS011;51605;47.040;15.294;2023-04-01T08:08:19;3.30;;;1.08;;
65037;SDS011;51605;47.040;15.294;2023-04-01T08:13:48;1.10;;;0.80;;
65037;SDS011;51605;47.040;15.294;2023-04-01T08:16:23;2.22;;;0.85;;
65037;SDS011;51605;47.040;15.294;2023-04-01T08:19:45;2.13;;;0.80;;
65037;SDS011;51605;47.040;15.294;2023-04-01T08:22:27;1.60;;;0.90;;
65037;SDS011;51605;47.040;15.294;2023-04-01T08:24:58;1.33;;;0.80;;
65037;SDS011;51605;47.040;15.294;2023-04-01T08:30:03;1.92;;;0.93;;
65037;SDS011;51605;47.040;15.294;2023-04-01T08:33:11;2.10;;;0.88;;
65037;SDS011;51605;47.040;15.294;2023-04-01T08:41:20;1.45;;;0.80;;
65037;SDS011;51605;47.040;15.294;2023-04-01T08:47:24;2.30;;;0.98;;
65037;SDS011;51605;47.040;15.294;2023-04-01T08:53:03;1.35;;;0.85;;
65037;SDS011;51605;47.040;15.294;2023-04-01T08:55:44;1.90;;;0.95;;
65037;SDS011;51605;47.040;15.294;2023-04-01T09:06:40;1.27;;;0.80;;
65037;SDS011;51605;47.040;15.294;2023-04-01T09:28:54;2.33;;;0.90;;
65037;SDS011;51605;47.040;15.294;2023-04-01T09:42:22;1.05;;;0.80;;
65037;SDS011;51605;47.040;15.294;2023-04-01T09:50:53;1.13;;;0.73;;
65037;SDS011;51605;47.040;15.294;2023-04-01T09:53:32;0.93;;;0.70;;
65037;SDS011;51605;47.040;15.294;2023-04-01T10:04:57;1.10;;;0.68;;
65037;SDS011;51605;47.040;15.294;2023-04-01T10:07:48;0.75;;;0.65;;
65037;SDS011;51605;47.040;15.294;2023-04-01T10:21:16;1.13;;;1.00;;
65037;SDS011;51605;47.040;15.294;2023-04-01T10:43:32;1.25;;;0.70;;
65037;SDS011;51605;47.040;15.294;2023-04-01T11:02:14;2.58;;;1.00;;
65037;SDS011;51605;47.040;15.294;2023-04-01T11:27:40;4.65;;;1.77;;
65037;SDS011;51605;47.040;15.294;2023-04-01T11:30:33;4.05;;;1.90;;
65037;SDS011;51605;47.040;15.294;2023-04-01T11:41:12;4.82;;;2.70;;
65037;SDS011;51605;47.040;15.294;2023-04-01T11:55:18;10.13;;;5.43;;
65037;SDS011;51605;47.040;15.294;2023-04-01T12:04:06;16.52;;;8.07;;
65037;SDS011;51605;47.040;15.294;2023-04-01T12:09:58;15.73;;;9.18;;
65037;SDS011;51605;47.040;15.294;2023-04-01T12:12:43;13.60;;;9.70;;
65037;SDS011;51605;47.040;15.294;2023-04-01T12:17:57;16.05;;;10.30;;
65037;SDS011;51605;47.040;15.294;2023-04-01T12:20:59;18.13;;;11.05;;
65037;SDS011;51605;47.040;15.294;2023-04-01T12:29:16;17.20;;;10.68;;
65037;SDS011;51605;47.040;15.294;2023-04-01T12:45:35;15.30;;;9.93;;
65037;SDS011;51605;47.040;15.294;2023-04-01T12:55:59;13.05;;;8.68;;
65037;SDS011;51605;47.040;15.294;2023-04-01T13:01:15;14.00;;;9.20;;
65037;SDS011;51605;47.040;15.294;2023-04-01T13:10:13;13.10;;;8.60;;
65037;SDS011;51605;47.040;15.294;2023-04-01T13:15:52;11.70;;;7.88;;
65037;SDS011;51605;47.040;15.294;2023-04-01T13:23:36;12.32;;;8.13;;
65037;SDS011;51605;47.040;15.294;2023-04-01T13:26:29;10.15;;;7.13;;
65037;SDS011;51605;47.040;15.294;2023-04-01T13:35:00;11.25;;;7.15;;
65037;SDS011;51605;47.040;15.294;2023-04-01T13:42:40;8.85;;;6.80;;
65037;SDS011;51605;47.040;15.294;2023-04-01T14:11:07;10.45;;;6.28;;
65037;SDS011;51605;47.040;15.294;2023-04-01T14:19:27;11.13;;;5.78;;
65037;SDS011;51605;47.040;15.294;2023-04-01T14:22:25;10.00;;;5.47;;
65037;SDS011;51605;47.040;15.294;2023-04-01T14:28:33;8.02;;;5.35;;
65037;SDS011;51605;47.040;15.294;2023-04-01T14:50:30;7.85;;;4.50;;
65037;SDS011;51605;47.040;15.294;2023-04-01T14:56:06;7.03;;;4.28;;
65037;SDS011;51605;47.040;15.294;2023-04-01T14:58:41;7.78;;;4.57;;
65037;SDS011;51605;47.040;15.294;2023-04-01T15:01:25;6.03;;;3.80;;
65037;SDS011;51605;47.040;15.294;2023-04-01T15:04:23;5.82;;;3.92;;
65037;SDS011;51605;47.040;15.294;2023-04-01T15:21:30;6.80;;;3.45;;
65037;SDS011;51605;47.040;15.294;2023-04-01T15:29:19;5.78;;;3.20;;
65037;SDS011;51605;47.040;15.294;2023-04-01T15:32:04;5.15;;;3.20;;
65037;SDS011;51605;47.040;15.294;2023-04-01T15:34:41;5.25;;;3.05;;
65037;SDS011;51605;47.040;15.294;2023-04-01T15:37:16;7.13;;;3.03;;
65037;SDS011;51605;47.040;15.294;2023-04-01T15:42:42;4.75;;;2.60;;
65037;SDS011;51605;47.040;15.294;2023-04-01T15:47:55;3.70;;;2.30;;
65037;SDS011;51605;47.040;15.294;2023-04-01T16:01:24;5.20;;;2.28;;
65037;SDS011;51605;47.040;15.294;2023-04-01T16:09:48;2.40;;;1.63;;
65037;SDS011;51605;47.040;15.294;2023-04-01T16:12:56;2.58;;;1.75;;
65037;SDS011;51605;47.040;15.294;2023-04-01T16:15:44;3.33;;;2.00;;
65037;SDS011;51605;47.040;15.294;2023-04-01T16:21:50;3.60;;;2.00;;
65037;SDS011;51605;47.040;15.294;2023-04-01T16:24:53;4.00;;;2.08;;
65037;SDS011;51605;47.040;15.294;2023-04-01T16:33:32;3.22;;;2.10;;
65037;SDS011;51605;47.040;15.294;2023-04-01T16:41:56;4.22;;;1.60;;
65037;SDS011;51605;47.040;15.294;2023-04-01T16:44:26;3.42;;;1.80;;
65037;SDS011;51605;47.040;15.294;2023-04-01T16:46:53;2.92;;;2.03;;
65037;SDS011;51605;47.040;15.294;2023-04-01T16:49:52;2.75;;;2.30;;
65037;SDS011;51605;47.040;15.294;2023-04-01T16:52:30;4.20;;;2.65;;
65037;SDS011;51605;47.040;15.294;2023-04-01T16:55:17;3.00;;;1.70;;
65037;SDS011;51605;47.040;15.294;2023-04-01T16:58:18;3.42;;;2.13;;
65037;SDS011;51605;47.040;15.294;2023-04-01T17:00:50;4.30;;;1.77;;
65037;SDS011;51605;47.040;15.294;2023-04-01T17:03:22;2.30;;;1.40;;
65037;SDS011;51605;47.040;15.294;2023-04-01T17:14:35;3.40;;;1.45;;
65037;SDS011;51605;47.040;15.294;2023-04-01T17:17:21;2.20;;;1.40;;
65037;SDS011;51605;47.040;15.294;2023-04-01T17:31:07;1.95;;;1.40;;
65037;SDS011;51605;47.040;15.294;2023-04-01T17:33:55;3.20;;;1.70;;
65037;SDS011;51605;47.040;15.294;2023-04-01T17:39:33;2.95;;;1.40;;
65037;SDS011;51605;47.040;15.294;2023-04-01T17:42:21;2.65;;;1.50;;
65037;SDS011;51605;47.040;15.294;2023-04-01T17:50:23;3.65;;;1.35;;
65037;SDS011;51605;47.040;15.294;2023-04-01T17:58:21;3.08;;;1.20;;
65037;SDS011;51605;47.040;15.294;2023-04-01T18:12:12;4.25;;;1.48;;
65037;SDS011;51605;47.040;15.294;2023-04-01T18:17:33;4.75;;;1.45;;
65037;SDS011;51605;47.040;15.294;2023-04-01T18:30:42;4.30;;;1.20;;
65037;SDS011;51605;47.040;15.294;2023-04-01T18:33:24;2.97;;;1.25;;
65037;SDS011;51605;47.040;15.294;2023-04-01T18:36:07;1.92;;;1.10;;
65037;SDS011;51605;47.040;15.294;2023-04-01T18:41:56;2.45;;;1.33;;
65037;SDS011;51605;47.040;15.294;2023-04-01T18:44:34;3.22;;;1.30;;
65037;SDS011;51605;47.040;15.294;2023-04-01T18:52:46;2.83;;;1.10;;
65037;SDS011;51605;47.040;15.294;2023-04-01T18:55:39;3.45;;;1.48;;
65037;SDS011;51605;47.040;15.294;2023-04-01T19:03:44;2.70;;;1.27;;
65037;SDS011;51605;47.040;15.294;2023-04-01T19:06:32;1.70;;;1.10;;
65037;SDS011;51605;47.040;15.294;2023-04-01T19:09:21;2.53;;;1.20;;
65037;SDS011;51605;47.040;15.294;2023-04-01T19:26:01;0.85;;;0.82;;
65037;SDS011;51605;47.040;15.294;2023-04-01T19:39:39;4.80;;;1.10;;
65037;SDS011;51605;47.040;15.294;2023-04-01T19:42:29;2.72;;;1.00;;
65037;SDS011;51605;47.040;15.294;2023-04-01T19:45:34;2.72;;;1.30;;
65037;SDS011;51605;47.040;15.294;2023-04-01T19:56:18;2.75;;;1.40;;
65037;SDS011;51605;47.040;15.294;2023-04-01T19:58:54;2.60;;;1.13;;
65037;SDS011;51605;47.040;15.294;2023-04-01T20:01:34;2.22;;;1.20;;
65037;SDS011;51605;47.040;15.294;2023-04-01T20:04:04;2.67;;;1.30;;
65037;SDS011;51605;47.040;15.294;2023-04-01T20:09:58;2.35;;;1.23;;
65037;SDS011;51605;47.040;15.294;2023-04-01T20:13:05;1.67;;;1.15;;
65037;SDS011;51605;47.040;15.294;2023-04-01T20:15:44;3.28;;;1.73;;
65037;SDS011;51605;47.040;15.294;2023-04-01T20:23:43;1.90;;;1.42;;
65037;SDS011;51605;47.040;15.294;2023-04-01T20:26:21;2.80;;;1.50;;
65037;SDS011;51605;47.040;15.294;2023-04-01T20:31:58;3.50;;;1.30;;
65037;SDS011;51605;47.040;15.294;2023-04-01T20:35:18;2.25;;;1.10;;
65037;SDS011;51605;47.040;15.294;2023-04-01T20:45:59;1.83;;;1.00;;
65037;SDS011;51605;47.040;15.294;2023-04-01T20:50:59;2.05;;;1.20;;
65037;SDS011;51605;47.040;15.294;2023-04-01T21:09:14;2.45;;;2.08;;
65037;SDS011;51605;47.040;15.294;2023-04-01T21:15:07;2.67;;;1.10;;
65037;SDS011;51605;47.040;15.294;2023-04-01T21:17:56;2.63;;;1.20;;
65037;SDS011;51605;47.040;15.294;2023-04-01T21:45:15;1.48;;;1.02;;
65037;SDS011;51605;47.040;15.294;2023-04-01T22:07:25;2.15;;;1.13;;
65037;SDS011;51605;47.040;15.294;2023-04-01T22:17:29;2.17;;;1.30;;
65037;SDS011;51605;47.040;15.294;2023-04-01T22:20:03;1.85;;;1.25;;
65037;SDS011;51605;47.040;15.294;2023-04-01T22:25:40;2.17;;;1.60;;
65037;SDS011;51605;47.040;15.294;2023-04-01T22:28:09;1.95;;;1.67;;
65037;SDS011;51605;47.040;15.294;2023-04-01T22:31:07;2.72;;;1.35;;
65037;SDS011;51605;47.040;15.294;2023-04-01T22:39:18;1.30;;;0.90;;
65037;SDS011;51605;47.040;15.294;2023-04-01T22:47:26;1.70;;;1.27;;
65037;SDS011;51605;47.040;15.294;2023-04-01T22:52:44;1.55;;;0.90;;
65037;SDS011;51605;47.040;15.294;2023-04-01T22:55:15;1.80;;;0.82;;
65037;SDS011;51605;47.040;15.294;2023-04-01T22:57:49;1.25;;;1.00;;
65037;SDS011;51605;47.040;15.294;2023-04-01T23:00:27;1.38;;;0.95;;
65037;SDS011;51605;47.040;15.294;2023-04-01T23:03:16;1.27;;;0.80;;
65037;SDS011;51605;47.040;15.294;2023-04-01T23:05:58;0.75;;;0.73;;
65037;SDS011;51605;47.040;15.294;2023-04-01T23:38:36;1.48;;;1.20;;
65037;SDS011;51605;47.040;15.294;2023-04-01T23:41:04;1.98;;;1.33;;
65037;SDS011;51605;47.040;15.294;2023-04-01T23:43:33;1.48;;;1.00;;
65037;SDS011;51605;47.040;15.294;2023-04-01T23:46:06;1.38;;;0.80;;
65037;SDS011;51605;47.040;15.294;2023-04-01T23:48:33;1.85;;;0.90;;
65037;SDS011;51605;47.040;15.294;2023-04-01T23:51:00;1.58;;;1.40;;
65037;SDS011;51605;47.040;15.294;2023-04-01T23:53:29;1.73;;;1.17;;
65037;SDS011;51605;47.040;15.294;2023-04-01T23:55:58;1.73;;;1.58;;
65037;SDS011;51605;47.040;15.294;2023-04-01T23:58:42;2.22;;;1.45;;
